createdAt,value
2018-06-17T00:00:05.817Z,1009.80
2018-06-17T00:01:05.820Z,1009.79
2018-06-17T00:02:05.827Z,1009.79
2018-06-17T00:03:05.827Z,1009.82
2018-06-17T00:04:05.828Z,1009.81
2018-06-17T00:05:05.834Z,1009.82
2018-06-17T00:06:05.834Z,1009.81
2018-06-17T00:07:05.836Z,1009.78
2018-06-17T00:08:05.839Z,1009.80
2018-06-17T00:09:05.838Z,1009.80
2018-06-17T00:10:05.842Z,1009.79
2018-06-17T00:11:05.847Z,1009.78
2018-06-17T00:12:05.848Z,1009.81
2018-06-17T00:13:05.852Z,1009.80
2018-06-17T00:14:05.856Z,1009.75
2018-06-17T00:15:05.857Z,1009.79
2018-06-17T00:16:05.857Z,1009.78
2018-06-17T00:17:05.873Z,1009.77
2018-06-17T00:18:05.868Z,1009.81
2018-06-17T00:19:05.870Z,1009.77
2018-06-17T00:20:05.868Z,1009.80
2018-06-17T00:21:05.872Z,1009.76
2018-06-17T00:22:05.874Z,1009.77
2018-06-17T00:23:05.877Z,1009.77
2018-06-17T00:24:05.878Z,1009.80
2018-06-17T00:25:05.886Z,1009.79
2018-06-17T00:26:05.883Z,1009.79
2018-06-17T00:27:05.888Z,1009.77
2018-06-17T00:28:05.888Z,1009.78
2018-06-17T00:29:05.894Z,1009.80
2018-06-17T00:30:05.898Z,1009.77
2018-06-17T00:31:05.897Z,1009.76
2018-06-17T00:32:05.902Z,1009.75
2018-06-17T00:33:05.905Z,1009.78
2018-06-17T00:34:05.903Z,1009.78
2018-06-17T00:35:05.907Z,1009.82
2018-06-17T00:36:05.912Z,1009.80
2018-06-17T00:37:05.912Z,1009.79
2018-06-17T00:38:05.913Z,1009.80
2018-06-17T00:39:05.959Z,1009.80
2018-06-17T00:40:05.920Z,1009.79
2018-06-17T00:41:05.938Z,1009.77
2018-06-17T00:42:05.925Z,1009.74
2018-06-17T00:43:05.928Z,1009.78
2018-06-17T00:44:05.928Z,1009.78
2018-06-17T00:45:05.931Z,1009.73
2018-06-17T00:46:05.939Z,1009.72
2018-06-17T00:47:05.937Z,1009.71
2018-06-17T00:48:05.944Z,1009.74
2018-06-17T00:49:05.942Z,1009.78
2018-06-17T00:50:05.946Z,1009.68
2018-06-17T00:51:05.949Z,1009.69
2018-06-17T00:52:05.950Z,1009.71
2018-06-17T00:53:05.954Z,1009.74
2018-06-17T00:54:05.961Z,1009.73
2018-06-17T00:55:05.960Z,1009.73
2018-06-17T00:56:05.959Z,1009.70
2018-06-17T00:57:05.963Z,1009.72
2018-06-17T00:58:05.965Z,1009.74
2018-06-17T00:59:05.966Z,1009.73
2018-06-17T01:00:05.971Z,1009.75
2018-06-17T01:01:05.972Z,1009.72
2018-06-17T01:02:05.976Z,1009.74
2018-06-17T01:03:05.979Z,1009.73
2018-06-17T01:04:06.044Z,1009.75
2018-06-17T01:05:05.981Z,1009.75
2018-06-17T01:06:05.989Z,1009.77
2018-06-17T01:07:05.989Z,1009.75
2018-06-17T01:08:05.990Z,1009.77
2018-06-17T01:09:05.993Z,1009.77
2018-06-17T01:10:05.996Z,1009.75
2018-06-17T01:11:06.001Z,1009.73
2018-06-17T01:12:06.003Z,1009.73
2018-06-17T01:13:06.002Z,1009.78
2018-06-17T01:14:06.008Z,1009.73
2018-06-17T01:15:06.007Z,1009.74
2018-06-17T01:16:06.009Z,1009.74
2018-06-17T01:17:06.013Z,1009.71
2018-06-17T01:18:06.015Z,1009.70
2018-06-17T01:19:06.017Z,1009.70
2018-06-17T01:20:06.020Z,1009.70
2018-06-17T01:21:06.021Z,1009.71
2018-06-17T01:22:06.021Z,1009.70
2018-06-17T01:23:06.025Z,1009.70
2018-06-17T01:24:06.029Z,1009.68
2018-06-17T01:25:06.030Z,1009.69
2018-06-17T01:26:06.034Z,1009.66
2018-06-17T01:27:06.039Z,1009.66
2018-06-17T01:28:06.038Z,1009.67
2018-06-17T01:29:06.039Z,1009.62
2018-06-17T01:30:06.041Z,1009.65
2018-06-17T01:31:06.045Z,1009.64
2018-06-17T01:32:06.045Z,1009.63
2018-06-17T01:33:06.051Z,1009.62
2018-06-17T01:34:06.049Z,1009.61
2018-06-17T01:35:06.055Z,1009.62
2018-06-17T01:36:06.056Z,1009.62
2018-06-17T01:37:06.057Z,1009.58
2018-06-17T01:38:06.060Z,1009.56
2018-06-17T01:39:06.061Z,1009.56
2018-06-17T01:40:06.068Z,1009.57
2018-06-17T01:41:06.071Z,1009.57
2018-06-17T01:42:06.069Z,1009.54
2018-06-17T01:43:06.072Z,1009.54
2018-06-17T01:44:06.069Z,1009.54
2018-06-17T01:45:06.073Z,1009.53
2018-06-17T01:46:06.078Z,1009.54
2018-06-17T01:47:06.081Z,1009.53
2018-06-17T01:48:06.082Z,1009.58
2018-06-17T01:49:06.083Z,1009.58
2018-06-17T01:50:06.085Z,1009.57
2018-06-17T01:51:06.085Z,1009.56
2018-06-17T01:52:06.089Z,1009.58
2018-06-17T01:53:06.090Z,1009.59
2018-06-17T01:54:06.100Z,1009.59
2018-06-17T01:55:06.097Z,1009.59
2018-06-17T01:56:06.095Z,1009.58
2018-06-17T01:57:06.100Z,1009.55
2018-06-17T01:58:06.111Z,1009.50
2018-06-17T01:59:06.106Z,1009.55
2018-06-17T02:00:06.104Z,1009.60
2018-06-17T02:01:06.107Z,1009.59
2018-06-17T02:02:06.106Z,1009.58
2018-06-17T02:03:06.113Z,1009.58
2018-06-17T02:04:06.115Z,1009.58
2018-06-17T02:05:06.114Z,1009.59
2018-06-17T02:06:06.113Z,1009.60
2018-06-17T02:07:06.116Z,1009.58
2018-06-17T02:08:06.119Z,1009.55
2018-06-17T02:09:06.120Z,1009.58
2018-06-17T02:10:06.123Z,1009.58
2018-06-17T02:11:06.126Z,1009.54
2018-06-17T02:12:06.127Z,1009.55
2018-06-17T02:13:06.128Z,1009.54
2018-06-17T02:14:06.131Z,1009.57
2018-06-17T02:15:06.132Z,1009.52
2018-06-17T02:16:06.138Z,1009.52
2018-06-17T02:17:06.135Z,1009.52
2018-06-17T02:18:06.140Z,1009.50
2018-06-17T02:19:06.143Z,1009.54
2018-06-17T02:20:06.140Z,1009.51
2018-06-17T02:21:06.143Z,1009.48
2018-06-17T02:22:06.146Z,1009.46
2018-06-17T02:23:06.147Z,1009.47
2018-06-17T02:24:06.152Z,1009.46
2018-06-17T02:25:06.148Z,1009.48
2018-06-17T02:26:06.150Z,1009.44
2018-06-17T02:27:06.151Z,1009.44
2018-06-17T02:28:06.162Z,1009.41
2018-06-17T02:29:06.159Z,1009.44
2018-06-17T02:30:06.160Z,1009.42
2018-06-17T02:31:06.161Z,1009.42
2018-06-17T02:32:06.160Z,1009.40
2018-06-17T02:33:06.166Z,1009.40
2018-06-17T02:34:06.167Z,1009.42
2018-06-17T02:35:06.169Z,1009.38
2018-06-17T02:36:06.170Z,1009.38
2018-06-17T02:37:06.174Z,1009.38
2018-06-17T02:38:06.173Z,1009.34
2018-06-17T02:39:06.177Z,1009.33
2018-06-17T02:40:06.177Z,1009.33
2018-06-17T02:41:06.180Z,1009.33
2018-06-17T02:42:06.181Z,1009.34
2018-06-17T02:43:06.183Z,1009.33
2018-06-17T02:44:06.185Z,1009.32
2018-06-17T02:45:06.193Z,1009.32
2018-06-17T02:46:06.186Z,1009.32
2018-06-17T02:47:06.189Z,1009.29
2018-06-17T02:48:06.191Z,1009.32
2018-06-17T02:49:06.192Z,1009.33
2018-06-17T02:50:06.197Z,1009.31
2018-06-17T02:51:06.203Z,1009.32
2018-06-17T02:52:06.199Z,1009.28
2018-06-17T02:53:06.199Z,1009.32
2018-06-17T02:54:06.202Z,1009.32
2018-06-17T02:55:06.207Z,1009.32
2018-06-17T02:56:06.208Z,1009.30
2018-06-17T02:57:06.208Z,1009.31
2018-06-17T02:58:06.218Z,1009.33
2018-06-17T02:59:06.212Z,1009.32
2018-06-17T03:00:06.218Z,1009.30
2018-06-17T03:01:06.215Z,1009.29
2018-06-17T03:02:06.218Z,1009.30
2018-06-17T03:03:06.225Z,1009.31
2018-06-17T03:04:06.220Z,1009.27
2018-06-17T03:05:06.223Z,1009.27
2018-06-17T03:06:06.230Z,1009.27
2018-06-17T03:07:06.226Z,1009.24
2018-06-17T03:08:06.233Z,1009.23
2018-06-17T03:09:06.227Z,1009.24
2018-06-17T03:10:06.233Z,1009.28
2018-06-17T03:11:06.235Z,1009.27
2018-06-17T03:12:06.234Z,1009.26
2018-06-17T03:13:06.237Z,1009.23
2018-06-17T03:14:06.237Z,1009.22
2018-06-17T03:15:06.240Z,1009.25
2018-06-17T03:16:06.241Z,1009.21
2018-06-17T03:17:06.244Z,1009.24
2018-06-17T03:18:06.244Z,1009.23
2018-06-17T03:19:06.248Z,1009.22
2018-06-17T03:20:06.251Z,1009.20
2018-06-17T03:21:06.251Z,1009.19
2018-06-17T03:22:06.251Z,1009.17
2018-06-17T03:23:06.255Z,1009.22
2018-06-17T03:24:06.254Z,1009.20
2018-06-17T03:25:06.259Z,1009.21
2018-06-17T03:26:06.261Z,1009.23
2018-06-17T03:27:06.264Z,1009.27
2018-06-17T03:28:06.261Z,1009.25
2018-06-17T03:29:06.260Z,1009.27
2018-06-17T03:30:06.265Z,1009.25
2018-06-17T03:31:06.268Z,1009.28
2018-06-17T03:32:06.270Z,1009.30
2018-06-17T03:33:06.272Z,1009.30
2018-06-17T03:34:06.274Z,1009.29
2018-06-17T03:35:06.276Z,1009.31
2018-06-17T03:36:06.277Z,1009.31
2018-06-17T03:37:06.285Z,1009.32
2018-06-17T03:38:06.280Z,1009.34
2018-06-17T03:39:06.286Z,1009.32
2018-06-17T03:40:06.285Z,1009.28
2018-06-17T03:41:06.291Z,1009.28
2018-06-17T03:42:06.289Z,1009.28
2018-06-17T03:43:06.293Z,1009.28
2018-06-17T03:44:06.293Z,1009.34
2018-06-17T03:45:06.297Z,1009.27
2018-06-17T03:46:06.298Z,1009.27
2018-06-17T03:47:06.305Z,1009.28
2018-06-17T03:48:06.305Z,1009.29
2018-06-17T03:49:06.307Z,1009.30
2018-06-17T03:50:06.304Z,1009.33
2018-06-17T03:51:06.307Z,1009.29
2018-06-17T03:52:06.310Z,1009.31
2018-06-17T03:53:06.315Z,1009.29
2018-06-17T03:54:06.319Z,1009.30
2018-06-17T03:55:06.320Z,1009.27
2018-06-17T03:56:06.321Z,1009.33
2018-06-17T03:57:06.328Z,1009.33
2018-06-17T03:58:06.326Z,1009.29
2018-06-17T03:59:06.328Z,1009.31
2018-06-17T04:00:06.333Z,1009.32
2018-06-17T04:01:06.335Z,1009.32
2018-06-17T04:02:06.337Z,1009.29
2018-06-17T04:03:06.343Z,1009.29
2018-06-17T04:04:06.347Z,1009.30
2018-06-17T04:05:06.349Z,1009.34
2018-06-17T04:06:06.357Z,1009.30
2018-06-17T04:07:06.356Z,1009.30
2018-06-17T04:08:06.356Z,1009.28
2018-06-17T04:09:06.359Z,1009.31
2018-06-17T04:10:06.362Z,1009.29
2018-06-17T04:11:06.367Z,1009.28
2018-06-17T04:12:06.369Z,1009.31
2018-06-17T04:13:06.371Z,1009.31
2018-06-17T04:14:06.375Z,1009.31
2018-06-17T04:15:06.379Z,1009.35
2018-06-17T04:16:06.381Z,1009.35
2018-06-17T04:17:06.381Z,1009.35
2018-06-17T04:18:06.386Z,1009.36
2018-06-17T04:19:06.391Z,1009.39
2018-06-17T04:20:06.396Z,1009.38
2018-06-17T04:21:06.403Z,1009.39
2018-06-17T04:22:06.403Z,1009.38
2018-06-17T04:23:06.409Z,1009.42
2018-06-17T04:24:06.410Z,1009.35
2018-06-17T04:25:06.414Z,1009.37
2018-06-17T04:26:06.413Z,1009.39
2018-06-17T04:27:06.423Z,1009.41
2018-06-17T04:28:06.424Z,1009.46
2018-06-17T04:29:06.427Z,1009.41
2018-06-17T04:30:06.433Z,1009.44
2018-06-17T04:31:06.440Z,1009.44
2018-06-17T04:32:06.441Z,1009.42
2018-06-17T04:33:06.446Z,1009.44
2018-06-17T04:34:06.451Z,1009.47
2018-06-17T04:35:06.457Z,1009.47
2018-06-17T04:36:06.458Z,1009.51
2018-06-17T04:37:06.462Z,1009.51
2018-06-17T04:38:06.469Z,1009.53
2018-06-17T04:39:06.475Z,1009.57
2018-06-17T04:40:06.482Z,1009.55
2018-06-17T04:41:06.481Z,1009.52
2018-06-17T04:42:06.484Z,1009.55
2018-06-17T04:43:06.492Z,1009.59
2018-06-17T04:44:06.495Z,1009.60
2018-06-17T04:45:06.501Z,1009.55
2018-06-17T04:46:06.512Z,1009.59
2018-06-17T04:47:06.509Z,1009.56
2018-06-17T04:48:06.515Z,1009.56
2018-06-17T04:49:06.518Z,1009.56
2018-06-17T04:50:06.524Z,1009.57
2018-06-17T04:51:06.528Z,1009.58
2018-06-17T04:52:06.531Z,1009.61
2018-06-17T04:53:06.537Z,1009.64
2018-06-17T04:54:06.542Z,1009.68
2018-06-17T04:55:06.550Z,1009.69
2018-06-17T04:56:06.553Z,1009.69
2018-06-17T04:57:06.556Z,1009.72
2018-06-17T04:58:06.563Z,1009.69
2018-06-17T04:59:06.569Z,1009.69
2018-06-17T05:00:06.668Z,1009.69
2018-06-17T05:01:06.575Z,1009.75
2018-06-17T05:02:06.582Z,1009.79
2018-06-17T05:03:06.588Z,1009.78
2018-06-17T05:04:06.593Z,1009.79
2018-06-17T05:05:06.601Z,1009.80
2018-06-17T05:06:06.606Z,1009.79
2018-06-17T05:07:06.611Z,1009.77
2018-06-17T05:08:06.618Z,1009.81
2018-06-17T05:09:06.626Z,1009.83
2018-06-17T05:10:06.630Z,1009.85
2018-06-17T05:11:06.635Z,1009.85
2018-06-17T05:12:06.640Z,1009.84
2018-06-17T05:13:06.645Z,1009.84
2018-06-17T05:14:06.652Z,1009.88
2018-06-17T05:15:06.658Z,1009.86
2018-06-17T05:16:06.662Z,1009.88
2018-06-17T05:17:06.680Z,1009.78
2018-06-17T05:18:06.678Z,1009.79
2018-06-17T05:19:06.684Z,1009.85
2018-06-17T05:20:06.687Z,1009.81
2018-06-17T05:21:06.694Z,1009.82
2018-06-17T05:22:06.699Z,1009.91
2018-06-17T05:23:06.706Z,1009.86
2018-06-17T05:24:06.711Z,1009.95
2018-06-17T05:25:06.717Z,1009.92
2018-06-17T05:26:06.724Z,1009.94
2018-06-17T05:27:06.730Z,1009.96
2018-06-17T05:28:06.734Z,1009.95
2018-06-17T05:29:06.740Z,1009.95
2018-06-17T05:30:06.747Z,1009.96
2018-06-17T05:31:06.754Z,1009.97
2018-06-17T05:32:06.761Z,1009.98
2018-06-17T05:33:06.766Z,1010.02
2018-06-17T05:34:06.772Z,1010.01
2018-06-17T05:35:06.777Z,1010.03
2018-06-17T05:36:06.783Z,1010.05
2018-06-17T05:37:06.790Z,1010.09
2018-06-17T05:38:06.795Z,1010.07
2018-06-17T05:39:06.799Z,1010.05
2018-06-17T05:40:06.807Z,1010.08
2018-06-17T05:41:06.815Z,1010.04
2018-06-17T05:42:06.819Z,1010.06
2018-06-17T05:43:06.827Z,1010.07
2018-06-17T05:44:06.835Z,1010.08
2018-06-17T05:45:06.840Z,1010.07
2018-06-17T05:46:06.850Z,1010.10
2018-06-17T05:47:06.852Z,1010.11
2018-06-17T05:48:06.857Z,1010.10
2018-06-17T05:49:06.864Z,1010.12
2018-06-17T05:50:06.871Z,1010.13
2018-06-17T05:51:06.879Z,1010.12
2018-06-17T05:52:06.884Z,1010.08
2018-06-17T05:53:06.890Z,1010.11
2018-06-17T05:54:06.898Z,1010.09
2018-06-17T05:55:06.905Z,1010.07
2018-06-17T05:56:06.910Z,1010.07
2018-06-17T05:57:06.918Z,1010.14
2018-06-17T05:58:06.926Z,1010.10
2018-06-17T05:59:06.936Z,1010.11
2018-06-17T06:00:06.941Z,1010.18
2018-06-17T06:01:06.949Z,1010.16
2018-06-17T06:02:06.955Z,1010.16
2018-06-17T06:03:06.961Z,1010.15
2018-06-17T06:04:07.103Z,1010.14
2018-06-17T06:05:06.976Z,1010.15
2018-06-17T06:06:06.982Z,1010.18
2018-06-17T06:07:06.987Z,1010.17
2018-06-17T06:08:06.994Z,1010.18
2018-06-17T06:09:07.000Z,1010.23
2018-06-17T06:10:07.016Z,1010.25
2018-06-17T06:11:07.013Z,1010.23
2018-06-17T06:12:07.037Z,1010.28
2018-06-17T06:13:07.030Z,1010.28
2018-06-17T06:14:07.036Z,1010.29
2018-06-17T06:15:07.045Z,1010.27
2018-06-17T06:16:07.051Z,1010.26
2018-06-17T06:17:07.055Z,1010.24
2018-06-17T06:18:07.062Z,1010.24
2018-06-17T06:19:07.069Z,1010.20
2018-06-17T06:20:07.075Z,1010.19
2018-06-17T06:21:07.087Z,1010.20
2018-06-17T06:22:07.093Z,1010.20
2018-06-17T06:23:07.101Z,1010.25
2018-06-17T06:24:07.108Z,1010.22
2018-06-17T06:25:07.116Z,1010.21
2018-06-17T06:26:07.120Z,1010.20
2018-06-17T06:27:07.131Z,1010.19
2018-06-17T06:28:07.137Z,1010.19
2018-06-17T06:29:07.150Z,1010.18
2018-06-17T06:30:07.154Z,1010.17
2018-06-17T06:31:07.160Z,1010.14
2018-06-17T06:32:07.167Z,1010.17
2018-06-17T06:33:07.173Z,1010.15
2018-06-17T06:34:07.187Z,1010.19
2018-06-17T06:35:07.191Z,1010.15
2018-06-17T06:36:07.199Z,1010.12
2018-06-17T06:37:07.204Z,1010.14
2018-06-17T06:38:07.215Z,1010.13
2018-06-17T06:39:07.220Z,1010.19
2018-06-17T06:40:07.226Z,1010.17
2018-06-17T06:41:07.238Z,1010.16
2018-06-17T06:42:07.243Z,1010.15
2018-06-17T06:43:07.251Z,1010.16
2018-06-17T06:44:07.259Z,1010.20
2018-06-17T06:45:07.266Z,1010.22
2018-06-17T06:46:07.282Z,1010.22
2018-06-17T06:47:07.283Z,1010.26
2018-06-17T06:48:07.291Z,1010.25
2018-06-17T06:49:07.299Z,1010.26
2018-06-17T06:50:07.368Z,1010.29
2018-06-17T06:51:07.369Z,1010.23
2018-06-17T06:52:07.326Z,1010.26
2018-06-17T06:53:07.335Z,1010.21
2018-06-17T06:54:07.344Z,1010.23
2018-06-17T06:55:07.353Z,1010.24
2018-06-17T06:56:07.367Z,1010.22
2018-06-17T06:57:07.373Z,1010.22
2018-06-17T06:58:07.379Z,1010.22
2018-06-17T06:59:07.388Z,1010.20
2018-06-17T07:00:07.397Z,1010.24
2018-06-17T07:01:07.405Z,1010.24
2018-06-17T07:02:07.415Z,1010.24
2018-06-17T07:03:07.424Z,1010.26
2018-06-17T07:04:07.433Z,1010.27
2018-06-17T07:05:07.442Z,1010.28
2018-06-17T07:06:07.452Z,1010.25
2018-06-17T07:07:07.462Z,1010.25
2018-06-17T07:08:07.469Z,1010.24
2018-06-17T07:09:07.484Z,1010.25
2018-06-17T07:10:07.492Z,1010.22
2018-06-17T07:11:07.493Z,1010.26
2018-06-17T07:12:07.507Z,1010.30
2018-06-17T07:13:07.517Z,1010.30
2018-06-17T07:14:07.535Z,1010.31
2018-06-17T07:15:07.538Z,1010.33
2018-06-17T07:16:07.545Z,1010.36
2018-06-17T07:17:07.558Z,1010.31
2018-06-17T07:18:07.567Z,1010.35
2018-06-17T07:19:07.577Z,1010.32
2018-06-17T07:20:07.586Z,1010.38
2018-06-17T07:21:07.596Z,1010.44
2018-06-17T07:22:07.605Z,1010.52
2018-06-17T07:23:07.616Z,1010.50
2018-06-17T07:24:07.625Z,1010.52
2018-06-17T07:25:07.695Z,1010.57
2018-06-17T07:26:07.650Z,1010.58
2018-06-17T07:27:07.654Z,1010.54
2018-06-17T07:28:07.665Z,1010.57
2018-06-17T07:29:07.675Z,1010.54
2018-06-17T07:30:07.681Z,1010.55
2018-06-17T07:31:07.696Z,1010.56
2018-06-17T07:32:07.704Z,1010.61
2018-06-17T07:33:07.715Z,1010.60
2018-06-17T07:34:07.725Z,1010.58
2018-06-17T07:35:07.735Z,1010.57
2018-06-17T07:36:07.744Z,1010.63
2018-06-17T07:37:07.753Z,1010.63
2018-06-17T07:38:07.767Z,1010.71
2018-06-17T07:39:07.774Z,1010.65
2018-06-17T07:40:07.786Z,1010.62
2018-06-17T07:41:07.793Z,1010.63
2018-06-17T07:42:07.808Z,1010.64
2018-06-17T07:43:07.814Z,1010.71
2018-06-17T07:44:07.823Z,1010.68
2018-06-17T07:45:07.832Z,1010.70
2018-06-17T07:46:07.842Z,1010.68
2018-06-17T07:47:07.852Z,1010.73
2018-06-17T07:48:07.860Z,1010.70
2018-06-17T07:49:07.870Z,1010.75
2018-06-17T07:50:07.879Z,1010.77
2018-06-17T07:51:07.889Z,1010.79
2018-06-17T07:52:07.900Z,1010.78
2018-06-17T07:53:07.908Z,1010.81
2018-06-17T07:54:07.918Z,1010.76
2018-06-17T07:55:07.927Z,1010.76
2018-06-17T07:56:07.997Z,1010.71
2018-06-17T07:57:07.945Z,1010.77
2018-06-17T07:58:07.958Z,1010.76
2018-06-17T07:59:07.964Z,1010.76
2018-06-17T08:00:07.972Z,1010.78
2018-06-17T08:01:07.982Z,1010.76
2018-06-17T08:02:07.990Z,1010.81
2018-06-17T08:03:07.999Z,1010.82
2018-06-17T08:04:08.007Z,1010.85
2018-06-17T08:05:08.017Z,1010.81
2018-06-17T08:06:08.025Z,1010.83
2018-06-17T08:07:08.032Z,1010.85
2018-06-17T08:08:08.049Z,1010.90
2018-06-17T08:09:08.055Z,1010.81
2018-06-17T08:10:08.071Z,1010.82
2018-06-17T08:11:08.152Z,1010.89
2018-06-17T08:12:08.083Z,1010.84
2018-06-17T08:13:08.091Z,1010.81
2018-06-17T08:14:08.102Z,1010.81
2018-06-17T08:15:08.120Z,1010.81
2018-06-17T08:16:08.124Z,1010.83
2018-06-17T08:17:08.130Z,1010.83
2018-06-17T08:18:08.137Z,1010.91
2018-06-17T08:19:08.148Z,1010.94
2018-06-17T08:20:08.208Z,1010.93
2018-06-17T08:21:08.165Z,1010.91
2018-06-17T08:22:08.180Z,1010.97
2018-06-17T08:23:08.185Z,1010.91
2018-06-17T08:24:08.188Z,1010.92
2018-06-17T08:25:08.201Z,1010.88
2018-06-17T08:26:08.213Z,1010.89
2018-06-17T08:27:08.223Z,1010.96
2018-06-17T08:28:08.233Z,1010.90
2018-06-17T08:29:08.239Z,1010.88
2018-06-17T08:30:08.250Z,1010.95
2018-06-17T08:31:08.272Z,1010.91
2018-06-17T08:32:08.267Z,1010.90
2018-06-17T08:33:08.278Z,1010.99
2018-06-17T08:34:08.289Z,1011.01
2018-06-17T08:35:08.298Z,1010.94
2018-06-17T08:36:08.308Z,1011.00
2018-06-17T08:37:08.317Z,1010.99
2018-06-17T08:38:08.327Z,1010.97
2018-06-17T08:39:08.383Z,1011.00
2018-06-17T08:40:08.350Z,1010.97
2018-06-17T08:41:08.356Z,1010.95
2018-06-17T08:42:08.365Z,1010.98
2018-06-17T08:43:08.374Z,1010.95
2018-06-17T08:44:08.383Z,1010.93
2018-06-17T08:45:08.397Z,1011.08
2018-06-17T08:46:08.411Z,1011.05
2018-06-17T08:47:08.418Z,1011.09
2018-06-17T08:48:08.426Z,1011.09
2018-06-17T08:49:08.443Z,1011.05
2018-06-17T08:50:08.449Z,1011.14
2018-06-17T08:51:08.461Z,1011.10
2018-06-17T08:52:08.476Z,1011.08
2018-06-17T08:53:08.483Z,1011.18
2018-06-17T08:54:08.531Z,1011.20
2018-06-17T08:55:08.508Z,1011.18
2018-06-17T08:56:08.515Z,1011.23
2018-06-17T08:57:08.529Z,1011.24
2018-06-17T08:58:08.537Z,1011.19
2018-06-17T08:59:08.549Z,1011.15
2018-06-17T09:00:08.578Z,1011.11
2018-06-17T09:01:08.571Z,1011.07
2018-06-17T09:02:08.584Z,1010.96
2018-06-17T09:03:08.597Z,1010.96
2018-06-17T09:04:08.605Z,1010.98
2018-06-17T09:05:08.615Z,1010.95
2018-06-17T09:06:08.625Z,1010.90
2018-06-17T09:07:08.635Z,1010.97
2018-06-17T09:08:08.642Z,1010.99
2018-06-17T09:09:08.655Z,1011.01
2018-06-17T09:10:08.662Z,1010.99
2018-06-17T09:11:08.668Z,1010.99
2018-06-17T09:12:08.677Z,1010.90
2018-06-17T09:13:08.689Z,1011.01
2018-06-17T09:14:08.703Z,1011.00
2018-06-17T09:15:08.708Z,1010.95
2018-06-17T09:16:08.716Z,1011.02
2018-06-17T09:17:08.727Z,1010.98
2018-06-17T09:18:08.731Z,1010.91
2018-06-17T09:19:08.739Z,1010.94
2018-06-17T09:20:08.747Z,1010.91
2018-06-17T09:21:08.755Z,1010.92
2018-06-17T09:22:08.761Z,1010.90
2018-06-17T09:23:08.771Z,1010.88
2018-06-17T09:24:08.775Z,1010.88
2018-06-17T09:25:08.822Z,1010.88
2018-06-17T09:26:08.789Z,1010.86
2018-06-17T09:27:08.798Z,1010.90
2018-06-17T09:28:08.803Z,1010.83
2018-06-17T09:29:08.813Z,1010.80
2018-06-17T09:30:08.818Z,1010.74
2018-06-17T09:31:08.825Z,1010.82
2018-06-17T09:32:08.887Z,1010.78
2018-06-17T09:33:08.834Z,1010.79
2018-06-17T09:34:08.845Z,1010.78
2018-06-17T09:35:08.851Z,1010.70
2018-06-17T09:36:08.857Z,1010.74
2018-06-17T09:37:08.863Z,1010.75
2018-06-17T09:38:08.869Z,1010.75
2018-06-17T09:39:08.877Z,1010.68
2018-06-17T09:40:08.881Z,1010.73
2018-06-17T09:41:08.884Z,1010.72
2018-06-17T09:42:08.890Z,1010.72
2018-06-17T09:43:08.900Z,1010.75
2018-06-17T09:44:08.907Z,1010.70
2018-06-17T09:45:08.913Z,1010.65
2018-06-17T09:46:08.919Z,1010.69
2018-06-17T09:47:08.924Z,1010.72
2018-06-17T09:48:08.931Z,1010.75
2018-06-17T09:49:08.939Z,1010.80
2018-06-17T09:50:08.942Z,1010.78
2018-06-17T09:51:08.953Z,1010.85
2018-06-17T09:52:08.972Z,1010.79
2018-06-17T09:53:08.958Z,1010.76
2018-06-17T09:54:08.965Z,1010.76
2018-06-17T09:55:08.985Z,1010.63
2018-06-17T09:56:08.974Z,1010.75
2018-06-17T09:57:08.980Z,1010.74
2018-06-17T09:58:08.986Z,1010.77
2018-06-17T09:59:08.992Z,1010.75
2018-06-17T10:00:08.996Z,1010.75
2018-06-17T10:01:09.001Z,1010.78
2018-06-17T10:02:09.007Z,1010.74
2018-06-17T10:03:09.020Z,1010.69
2018-06-17T10:04:09.020Z,1010.67
2018-06-17T10:05:09.024Z,1010.68
2018-06-17T10:06:09.031Z,1010.63
2018-06-17T10:07:09.037Z,1010.74
2018-06-17T10:08:09.042Z,1010.75
2018-06-17T10:09:09.047Z,1010.73
2018-06-17T10:10:09.053Z,1010.70
2018-06-17T10:11:09.060Z,1010.68
2018-06-17T10:12:09.066Z,1010.79
2018-06-17T10:13:09.070Z,1010.75
2018-06-17T10:14:09.078Z,1010.72
2018-06-17T10:15:09.081Z,1010.73
2018-06-17T10:16:09.087Z,1010.69
2018-06-17T10:17:09.092Z,1010.72
2018-06-17T10:18:09.098Z,1010.76
2018-06-17T10:19:09.106Z,1010.73
2018-06-17T10:20:09.103Z,1010.71
2018-06-17T10:21:09.132Z,1010.72
2018-06-17T10:22:09.120Z,1010.67
2018-06-17T10:23:09.126Z,1010.72
2018-06-17T10:24:09.132Z,1010.71
2018-06-17T10:25:09.137Z,1010.79
2018-06-17T10:26:09.142Z,1010.80
2018-06-17T10:27:09.149Z,1010.75
2018-06-17T10:28:09.154Z,1010.72
2018-06-17T10:29:09.157Z,1010.76
2018-06-17T10:30:09.164Z,1010.78
2018-06-17T10:31:09.172Z,1010.83
2018-06-17T10:32:09.177Z,1010.73
2018-06-17T10:33:09.182Z,1010.84
2018-06-17T10:34:09.188Z,1010.80
2018-06-17T10:35:09.194Z,1010.76
2018-06-17T10:36:09.201Z,1010.79
2018-06-17T10:37:09.205Z,1010.78
2018-06-17T10:38:09.276Z,1010.73
2018-06-17T10:39:09.218Z,1010.70
2018-06-17T10:40:09.221Z,1010.68
2018-06-17T10:41:09.228Z,1010.74
2018-06-17T10:42:09.234Z,1010.75
2018-06-17T10:43:09.241Z,1010.78
2018-06-17T10:44:09.244Z,1010.81
2018-06-17T10:45:09.253Z,1010.78
2018-06-17T10:46:09.257Z,1010.76
2018-06-17T10:47:09.263Z,1010.78
2018-06-17T10:48:09.270Z,1010.78
2018-06-17T10:49:09.276Z,1010.78
2018-06-17T10:50:09.282Z,1010.76
2018-06-17T10:51:09.288Z,1010.74
2018-06-17T10:52:09.290Z,1010.77
2018-06-17T10:53:09.300Z,1010.72
2018-06-17T10:54:09.307Z,1010.70
2018-06-17T10:55:09.308Z,1010.77
2018-06-17T10:56:09.365Z,1010.80
2018-06-17T10:57:09.325Z,1010.81
2018-06-17T10:58:09.329Z,1010.86
2018-06-17T10:59:09.332Z,1010.85
2018-06-17T11:00:09.340Z,1010.89
2018-06-17T11:01:09.350Z,1010.89
2018-06-17T11:02:09.348Z,1010.93
2018-06-17T11:03:09.358Z,1010.91
2018-06-17T11:04:09.361Z,1010.91
2018-06-17T11:05:09.367Z,1010.94
2018-06-17T11:06:09.371Z,1010.84
2018-06-17T11:07:09.380Z,1010.97
2018-06-17T11:08:09.387Z,1010.95
2018-06-17T11:09:09.387Z,1010.94
2018-06-17T11:10:09.395Z,1011.00
2018-06-17T11:11:09.401Z,1010.99
2018-06-17T11:12:09.404Z,1011.00
2018-06-17T11:13:09.462Z,1011.00
2018-06-17T11:14:09.416Z,1011.05
2018-06-17T11:15:09.423Z,1010.99
2018-06-17T11:16:09.427Z,1011.01
2018-06-17T11:17:09.434Z,1010.96
2018-06-17T11:18:09.440Z,1011.02
2018-06-17T11:19:09.446Z,1010.94
2018-06-17T11:20:09.452Z,1010.92
2018-06-17T11:21:09.459Z,1010.96
2018-06-17T11:22:09.463Z,1010.95
2018-06-17T11:23:09.470Z,1010.96
2018-06-17T11:24:09.475Z,1010.78
2018-06-17T11:25:09.481Z,1010.88
2018-06-17T11:26:09.486Z,1010.83
2018-06-17T11:27:09.497Z,1010.95
2018-06-17T11:28:09.504Z,1010.88
2018-06-17T11:29:09.504Z,1010.86
2018-06-17T11:30:09.507Z,1010.84
2018-06-17T11:31:09.514Z,1010.88
2018-06-17T11:32:09.525Z,1010.87
2018-06-17T11:33:09.526Z,1010.89
2018-06-17T11:34:09.532Z,1010.88
2018-06-17T11:35:09.537Z,1010.90
2018-06-17T11:36:09.540Z,1010.89
2018-06-17T11:37:09.547Z,1010.90
2018-06-17T11:38:09.551Z,1010.85
2018-06-17T11:39:09.738Z,1010.89
2018-06-17T11:40:09.564Z,1010.86
2018-06-17T11:41:09.570Z,1010.86
2018-06-17T11:42:09.575Z,1010.88
2018-06-17T11:43:09.585Z,1010.90
2018-06-17T11:44:09.587Z,1010.89
2018-06-17T11:45:09.592Z,1010.84
2018-06-17T11:46:09.601Z,1010.89
2018-06-17T11:47:09.608Z,1010.75
2018-06-17T11:48:09.608Z,1010.89
2018-06-17T11:49:09.616Z,1010.84
2018-06-17T11:50:09.624Z,1010.87
2018-06-17T11:51:09.625Z,1010.80
2018-06-17T11:52:09.629Z,1010.87
2018-06-17T11:53:09.636Z,1010.83
2018-06-17T11:54:09.640Z,1010.84
2018-06-17T11:55:09.644Z,1010.76
2018-06-17T11:56:09.651Z,1010.79
2018-06-17T11:57:09.655Z,1010.83
2018-06-17T11:58:09.659Z,1010.77
2018-06-17T11:59:09.663Z,1010.78
2018-06-17T12:00:09.668Z,1010.80
2018-06-17T12:01:09.672Z,1010.72
2018-06-17T12:02:09.681Z,1010.73
2018-06-17T12:03:09.685Z,1010.78
2018-06-17T12:04:09.689Z,1010.80
2018-06-17T12:05:09.695Z,1010.77